sensor_id;sensor_type;location;lat;lon;timestamp;P1;durP1;ratioP1;P2;durP2;ratioP2
20271;SDS011;10295;49.812;9.866;2023-04-01T00:01:01;7.27;;;1.30;;
20271;SDS011;10295;49.812;9.866;2023-04-01T00:03:29;5.90;;;1.30;;
20271;SDS011;10295;49.812;9.866;2023-04-01T00:05:57;8.93;;;1.20;;
20271;SDS011;10295;49.812;9.866;2023-04-01T00:08:25;7.90;;;1.30;;
20271;SDS011;10295;49.812;9.866;2023-04-01T00:10:52;4.63;;;1.23;;
20271;SDS011;10295;49.812;9.866;2023-04-01T00:13:20;7.20;;;1.43;;
20271;SDS011;10295;49.812;9.866;2023-04-01T00:15:47;9.63;;;1.47;;
20271;SDS011;10295;49.812;9.866;2023-04-01T00:18:15;6.00;;;1.03;;
20271;SDS011;10295;49.812;9.866;2023-04-01T00:20:45;7.93;;;1.30;;
20271;SDS011;10295;49.812;9.866;2023-04-01T00:23:13;7.23;;;1.30;;
20271;SDS011;10295;49.812;9.866;2023-04-01T00:25:41;5.83;;;1.17;;
20271;SDS011;10295;49.812;9.866;2023-04-01T00:28:08;7.20;;;1.40;;
20271;SDS011;10295;49.812;9.866;2023-04-01T00:30:36;7.90;;;1.20;;
20271;SDS011;10295;49.812;9.866;2023-04-01T00:33:03;10.17;;;1.60;;
20271;SDS011;10295;49.812;9.866;2023-04-01T00:35:31;8.83;;;1.30;;
20271;SDS011;10295;49.812;9.866;2023-04-01T00:37:59;6.90;;;1.20;;
20271;SDS011;10295;49.812;9.866;2023-04-01T00:40:27;8.07;;;1.43;;
20271;SDS011;10295;49.812;9.866;2023-04-01T00:42:55;6.03;;;1.27;;
20271;SDS011;10295;49.812;9.866;2023-04-01T00:47:50;7.30;;;1.20;;
20271;SDS011;10295;49.812;9.866;2023-04-01T00:50:17;11.70;;;1.43;;
20271;SDS011;10295;49.812;9.866;2023-04-01T00:52:44;6.57;;;1.10;;
20271;SDS011;10295;49.812;9.866;2023-04-01T00:55:12;9.53;;;1.13;;
20271;SDS011;10295;49.812;9.866;2023-04-01T00:57:40;7.00;;;1.33;;
20271;SDS011;10295;49.812;9.866;2023-04-01T01:00:09;5.80;;;1.20;;
20271;SDS011;10295;49.812;9.866;2023-04-01T01:02:37;6.17;;;1.23;;
20271;SDS011;10295;49.812;9.866;2023-04-01T01:05:05;9.73;;;1.10;;
20271;SDS011;10295;49.812;9.866;2023-04-01T01:08:22;6.17;;;1.13;;
20271;SDS011;10295;49.812;9.866;2023-04-01T01:15:24;8.27;;;1.20;;
20271;SDS011;10295;49.812;9.866;2023-04-01T01:23:06;9.43;;;1.47;;
20271;SDS011;10295;49.812;9.866;2023-04-01T01:31:00;6.47;;;1.20;;
20271;SDS011;10295;49.812;9.866;2023-04-01T01:33:41;5.80;;;1.20;;
20271;SDS011;10295;49.812;9.866;2023-04-01T01:36:11;6.50;;;1.00;;
20271;SDS011;10295;49.812;9.866;2023-04-01T01:38:39;7.80;;;1.37;;
20271;SDS011;10295;49.812;9.866;2023-04-01T01:41:07;9.37;;;1.20;;
20271;SDS011;10295;49.812;9.866;2023-04-01T01:43:40;9.83;;;1.53;;
20271;SDS011;10295;49.812;9.866;2023-04-01T01:46:10;7.60;;;1.03;;
20271;SDS011;10295;49.812;9.866;2023-04-01T01:48:38;8.40;;;1.27;;
20271;SDS011;10295;49.812;9.866;2023-04-01T01:51:07;9.90;;;1.40;;
20271;SDS011;10295;49.812;9.866;2023-04-01T01:53:34;5.37;;;0.90;;
20271;SDS011;10295;49.812;9.866;2023-04-01T01:56:01;6.00;;;1.17;;
20271;SDS011;10295;49.812;9.866;2023-04-01T01:58:32;5.90;;;1.10;;
20271;SDS011;10295;49.812;9.866;2023-04-01T02:01:07;6.57;;;1.50;;
20271;SDS011;10295;49.812;9.866;2023-04-01T02:03:37;8.93;;;1.23;;
20271;SDS011;10295;49.812;9.866;2023-04-01T02:06:06;5.97;;;1.10;;
20271;SDS011;10295;49.812;9.866;2023-04-01T02:08:41;5.07;;;1.00;;
20271;SDS011;10295;49.812;9.866;2023-04-01T02:11:10;9.47;;;1.50;;
20271;SDS011;10295;49.812;9.866;2023-04-01T02:16:11;5.73;;;1.37;;
20271;SDS011;10295;49.812;9.866;2023-04-01T02:18:40;6.77;;;1.00;;
20271;SDS011;10295;49.812;9.866;2023-04-01T02:21:08;11.47;;;1.40;;
20271;SDS011;10295;49.812;9.866;2023-04-01T02:23:35;6.40;;;1.17;;
20271;SDS011;10295;49.812;9.866;2023-04-01T02:26:05;7.10;;;1.17;;
20271;SDS011;10295;49.812;9.866;2023-04-01T02:28:33;5.27;;;0.90;;
20271;SDS011;10295;49.812;9.866;2023-04-01T02:31:01;6.67;;;1.37;;
20271;SDS011;10295;49.812;9.866;2023-04-01T02:33:29;7.60;;;1.27;;
20271;SDS011;10295;49.812;9.866;2023-04-01T02:35:57;7.57;;;1.30;;
20271;SDS011;10295;49.812;9.866;2023-04-01T02:38:25;7.73;;;1.40;;
20271;SDS011;10295;49.812;9.866;2023-04-01T02:40:56;8.03;;;1.20;;
20271;SDS011;10295;49.812;9.866;2023-04-01T02:43:24;6.90;;;1.30;;
20271;SDS011;10295;49.812;9.866;2023-04-01T02:45:51;7.20;;;1.20;;
20271;SDS011;10295;49.812;9.866;2023-04-01T02:48:18;5.73;;;1.23;;
20271;SDS011;10295;49.812;9.866;2023-04-01T02:50:45;8.57;;;1.30;;
20271;SDS011;10295;49.812;9.866;2023-04-01T02:53:12;8.63;;;1.30;;
20271;SDS011;10295;49.812;9.866;2023-04-01T02:55:39;6.60;;;1.17;;
20271;SDS011;10295;49.812;9.866;2023-04-01T02:58:07;6.27;;;1.57;;
20271;SDS011;10295;49.812;9.866;2023-04-01T03:00:34;8.90;;;1.30;;
20271;SDS011;10295;49.812;9.866;2023-04-01T03:03:01;5.07;;;0.93;;
20271;SDS011;10295;49.812;9.866;2023-04-01T03:05:29;8.73;;;1.20;;
20271;SDS011;10295;49.812;9.866;2023-04-01T03:07:57;8.67;;;1.00;;
20271;SDS011;10295;49.812;9.866;2023-04-01T03:10:24;9.90;;;1.70;;
20271;SDS011;10295;49.812;9.866;2023-04-01T03:12:51;10.10;;;1.30;;
20271;SDS011;10295;49.812;9.866;2023-04-01T03:15:18;4.90;;;1.13;;
20271;SDS011;10295;49.812;9.866;2023-04-01T03:17:45;9.83;;;1.37;;
20271;SDS011;10295;49.812;9.866;2023-04-01T03:20:13;6.60;;;1.30;;
20271;SDS011;10295;49.812;9.866;2023-04-01T03:22:41;7.53;;;1.23;;
20271;SDS011;10295;49.812;9.866;2023-04-01T03:25:08;9.83;;;1.20;;
20271;SDS011;10295;49.812;9.866;2023-04-01T03:27:36;6.83;;;1.50;;
20271;SDS011;10295;49.812;9.866;2023-04-01T03:30:04;7.23;;;1.23;;
20271;SDS011;10295;49.812;9.866;2023-04-01T03:32:32;8.87;;;1.03;;
20271;SDS011;10295;49.812;9.866;2023-04-01T03:34:59;8.60;;;1.53;;
20271;SDS011;10295;49.812;9.866;2023-04-01T03:37:26;6.87;;;1.30;;
20271;SDS011;10295;49.812;9.866;2023-04-01T03:39:53;6.17;;;1.13;;
20271;SDS011;10295;49.812;9.866;2023-04-01T03:42:20;8.47;;;1.20;;
20271;SDS011;10295;49.812;9.866;2023-04-01T03:44:48;6.80;;;1.33;;
20271;SDS011;10295;49.812;9.866;2023-04-01T03:47:15;9.33;;;1.30;;
20271;SDS011;10295;49.812;9.866;2023-04-01T03:49:43;6.10;;;1.20;;
20271;SDS011;10295;49.812;9.866;2023-04-01T03:52:10;7.60;;;1.53;;
20271;SDS011;10295;49.812;9.866;2023-04-01T03:54:37;8.60;;;1.30;;
20271;SDS011;10295;49.812;9.866;2023-04-01T03:57:05;9.27;;;1.60;;
20271;SDS011;10295;49.812;9.866;2023-04-01T03:59:32;9.30;;;1.30;;
20271;SDS011;10295;49.812;9.866;2023-04-01T04:01:59;9.77;;;1.40;;
20271;SDS011;10295;49.812;9.866;2023-04-01T04:04:27;5.67;;;1.07;;
20271;SDS011;10295;49.812;9.866;2023-04-01T04:06:54;8.87;;;1.47;;
20271;SDS011;10295;49.812;9.866;2023-04-01T04:09:22;9.33;;;1.50;;
20271;SDS011;10295;49.812;9.866;2023-04-01T04:11:49;6.03;;;1.10;;
20271;SDS011;10295;49.812;9.866;2023-04-01T04:14:16;6.73;;;1.23;;
20271;SDS011;10295;49.812;9.866;2023-04-01T04:16:44;4.17;;;0.90;;
20271;SDS011;10295;49.812;9.866;2023-04-01T04:19:11;7.67;;;1.10;;
20271;SDS011;10295;49.812;9.866;2023-04-01T04:21:39;5.53;;;1.00;;
20271;SDS011;10295;49.812;9.866;2023-04-01T04:24:06;9.40;;;1.23;;
20271;SDS011;10295;49.812;9.866;2023-04-01T04:26:33;8.93;;;1.27;;
20271;SDS011;10295;49.812;9.866;2023-04-01T04:29:01;7.63;;;1.17;;
20271;SDS011;10295;49.812;9.866;2023-04-01T04:31:28;8.23;;;1.10;;
20271;SDS011;10295;49.812;9.866;2023-04-01T04:33:55;7.73;;;1.53;;
20271;SDS011;10295;49.812;9.866;2023-04-01T04:36:23;5.57;;;1.10;;
20271;SDS011;10295;49.812;9.866;2023-04-01T04:38:50;5.43;;;1.00;;
20271;SDS011;10295;49.812;9.866;2023-04-01T04:41:18;6.10;;;1.10;;
20271;SDS011;10295;49.812;9.866;2023-04-01T04:43:50;6.17;;;1.07;;
20271;SDS011;10295;49.812;9.866;2023-04-01T04:46:17;5.77;;;1.03;;
20271;SDS011;10295;49.812;9.866;2023-04-01T04:48:45;2.70;;;0.80;;
20271;SDS011;10295;49.812;9.866;2023-04-01T04:51:13;6.97;;;1.17;;
20271;SDS011;10295;49.812;9.866;2023-04-01T04:53:41;8.50;;;1.30;;
20271;SDS011;10295;49.812;9.866;2023-04-01T04:56:09;4.73;;;0.90;;
20271;SDS011;10295;49.812;9.866;2023-04-01T04:58:36;5.70;;;0.87;;
20271;SDS011;10295;49.812;9.866;2023-04-01T05:01:11;8.43;;;1.30;;
20271;SDS011;10295;49.812;9.866;2023-04-01T05:03:38;5.80;;;1.10;;
20271;SDS011;10295;49.812;9.866;2023-04-01T05:06:06;6.00;;;1.07;;
20271;SDS011;10295;49.812;9.866;2023-04-01T05:08:34;5.83;;;1.00;;
20271;SDS011;10295;49.812;9.866;2023-04-01T05:11:02;10.23;;;1.30;;
20271;SDS011;10295;49.812;9.866;2023-04-01T05:13:29;7.17;;;1.07;;
20271;SDS011;10295;49.812;9.866;2023-04-01T05:15:56;6.43;;;1.30;;
20271;SDS011;10295;49.812;9.866;2023-04-01T05:18:23;4.27;;;0.87;;
20271;SDS011;10295;49.812;9.866;2023-04-01T05:20:51;6.73;;;0.90;;
20271;SDS011;10295;49.812;9.866;2023-04-01T05:23:19;4.10;;;0.90;;
20271;SDS011;10295;49.812;9.866;2023-04-01T05:25:50;6.70;;;1.00;;
20271;SDS011;10295;49.812;9.866;2023-04-01T05:28:19;5.10;;;0.90;;
20271;SDS011;10295;49.812;9.866;2023-04-01T05:30:46;5.40;;;1.00;;
20271;SDS011;10295;49.812;9.866;2023-04-01T05:33:14;3.60;;;0.80;;
20271;SDS011;10295;49.812;9.866;2023-04-01T05:35:41;11.13;;;1.30;;
20271;SDS011;10295;49.812;9.866;2023-04-01T05:38:08;6.50;;;0.90;;
20271;SDS011;10295;49.812;9.866;2023-04-01T05:40:35;4.97;;;0.87;;
20271;SDS011;10295;49.812;9.866;2023-04-01T05:43:02;4.23;;;0.77;;
20271;SDS011;10295;49.812;9.866;2023-04-01T05:45:30;5.30;;;1.20;;
20271;SDS011;10295;49.812;9.866;2023-04-01T05:47:58;3.90;;;0.80;;
20271;SDS011;10295;49.812;9.866;2023-04-01T05:50:26;3.40;;;0.80;;
20271;SDS011;10295;49.812;9.866;2023-04-01T05:52:54;4.67;;;0.90;;
20271;SDS011;10295;49.812;9.866;2023-04-01T05:55:21;7.37;;;1.07;;
20271;SDS011;10295;49.812;9.866;2023-04-01T05:57:48;4.83;;;0.83;;
20271;SDS011;10295;49.812;9.866;2023-04-01T06:00:16;4.53;;;0.90;;
20271;SDS011;10295;49.812;9.866;2023-04-01T06:02:43;3.77;;;0.90;;
20271;SDS011;10295;49.812;9.866;2023-04-01T06:05:18;5.13;;;0.97;;
20271;SDS011;10295;49.812;9.866;2023-04-01T06:07:46;6.40;;;1.17;;
20271;SDS011;10295;49.812;9.866;2023-04-01T06:10:17;5.73;;;0.83;;
20271;SDS011;10295;49.812;9.866;2023-04-01T06:13:06;6.00;;;1.00;;
20271;SDS011;10295;49.812;9.866;2023-04-01T06:15:53;5.83;;;1.00;;
20271;SDS011;10295;49.812;9.866;2023-04-01T06:21:14;4.77;;;1.10;;
20271;SDS011;10295;49.812;9.866;2023-04-01T06:26:41;7.63;;;1.10;;
20271;SDS011;10295;49.812;9.866;2023-04-01T06:31:42;5.40;;;1.10;;
20271;SDS011;10295;49.812;9.866;2023-04-01T06:34:17;5.30;;;1.07;;
20271;SDS011;10295;49.812;9.866;2023-04-01T06:37:11;6.10;;;1.00;;
20271;SDS011;10295;49.812;9.866;2023-04-01T06:39:39;8.07;;;1.10;;
20271;SDS011;10295;49.812;9.866;2023-04-01T06:42:13;6.60;;;0.97;;
20271;SDS011;10295;49.812;9.866;2023-04-01T06:44:45;8.00;;;1.20;;
20271;SDS011;10295;49.812;9.866;2023-04-01T06:54:57;3.93;;;0.83;;
20271;SDS011;10295;49.812;9.866;2023-04-01T06:59:58;5.00;;;1.10;;
20271;SDS011;10295;49.812;9.866;2023-04-01T07:02:34;6.27;;;1.20;;
20271;SDS011;10295;49.812;9.866;2023-04-01T07:05:04;7.00;;;1.00;;
20271;SDS011;10295;49.812;9.866;2023-04-01T07:07:36;10.50;;;1.20;;
20271;SDS011;10295;49.812;9.866;2023-04-01T07:10:05;5.40;;;1.10;;
20271;SDS011;10295;49.812;9.866;2023-04-01T07:12:37;7.67;;;1.20;;
20271;SDS011;10295;49.812;9.866;2023-04-01T07:15:20;5.57;;;0.80;;
20271;SDS011;10295;49.812;9.866;2023-04-01T07:17:49;7.43;;;1.17;;
20271;SDS011;10295;49.812;9.866;2023-04-01T07:20:31;7.00;;;0.90;;
20271;SDS011;10295;49.812;9.866;2023-04-01T07:22:59;4.70;;;0.93;;
20271;SDS011;10295;49.812;9.866;2023-04-01T07:25:29;6.40;;;1.00;;
20271;SDS011;10295;49.812;9.866;2023-04-01T07:28:00;7.07;;;1.00;;
20271;SDS011;10295;49.812;9.866;2023-04-01T07:30:29;4.47;;;1.00;;
20271;SDS011;10295;49.812;9.866;2023-04-01T07:35:38;4.43;;;0.90;;
20271;SDS011;10295;49.812;9.866;2023-04-01T07:43:40;3.53;;;0.80;;
20271;SDS011;10295;49.812;9.866;2023-04-01T07:54:18;7.03;;;0.90;;
20271;SDS011;10295;49.812;9.866;2023-04-01T07:56:31;5.20;;;1.00;;
20271;SDS011;10295;49.812;9.866;2023-04-01T08:01:34;3.80;;;0.77;;
20271;SDS011;10295;49.812;9.866;2023-04-01T08:12:23;6.07;;;0.90;;
20271;SDS011;10295;49.812;9.866;2023-04-01T08:14:57;4.23;;;0.80;;
20271;SDS011;10295;49.812;9.866;2023-04-01T08:20:25;5.07;;;0.83;;
20271;SDS011;10295;49.812;9.866;2023-04-01T08:22:58;2.00;;;0.60;;
20271;SDS011;10295;49.812;9.866;2023-04-01T08:25:28;3.47;;;0.80;;
20271;SDS011;10295;49.812;9.866;2023-04-01T08:28:09;2.73;;;0.60;;
20271;SDS011;10295;49.812;9.866;2023-04-01T08:30:39;5.17;;;0.70;;
20271;SDS011;10295;49.812;9.866;2023-04-01T08:33:11;2.50;;;0.60;;
20271;SDS011;10295;49.812;9.866;2023-04-01T08:38:12;3.13;;;0.60;;
20271;SDS011;10295;49.812;9.866;2023-04-01T08:40:51;4.40;;;0.80;;
20271;SDS011;10295;49.812;9.866;2023-04-01T08:46:13;5.13;;;0.77;;
20271;SDS011;10295;49.812;9.866;2023-04-01T08:54:20;1.03;;;0.50;;
20271;SDS011;10295;49.812;9.866;2023-04-01T08:59:36;2.27;;;0.60;;
20271;SDS011;10295;49.812;9.866;2023-04-01T09:02:35;2.23;;;0.60;;
20271;SDS011;10295;49.812;9.866;2023-04-01T09:08:05;2.17;;;0.60;;
20271;SDS011;10295;49.812;9.866;2023-04-01T09:13:16;1.63;;;0.60;;
20271;SDS011;10295;49.812;9.866;2023-04-01T09:23:31;1.33;;;0.50;;
20271;SDS011;10295;49.812;9.866;2023-04-01T09:31:50;1.53;;;0.50;;
20271;SDS011;10295;49.812;9.866;2023-04-01T09:36:46;4.90;;;0.70;;
20271;SDS011;10295;49.812;9.866;2023-04-01T09:44:33;1.30;;;0.60;;
20271;SDS011;10295;49.812;9.866;2023-04-01T09:49:49;1.10;;;0.40;;
20271;SDS011;10295;49.812;9.866;2023-04-01T09:52:23;2.53;;;0.67;;
20271;SDS011;10295;49.812;9.866;2023-04-01T09:54:56;2.47;;;0.50;;
20271;SDS011;10295;49.812;9.866;2023-04-01T10:15:50;2.53;;;0.53;;
20271;SDS011;10295;49.812;9.866;2023-04-01T10:24:10;1.30;;;0.50;;
20271;SDS011;10295;49.812;9.866;2023-04-01T10:29:28;2.63;;;0.67;;
20271;SDS011;10295;49.812;9.866;2023-04-01T10:32:37;2.67;;;0.60;;
20271;SDS011;10295;49.812;9.866;2023-04-01T10:40:24;2.93;;;0.50;;
20271;SDS011;10295;49.812;9.866;2023-04-01T10:51:11;1.37;;;0.50;;
20271;SDS011;10295;49.812;9.866;2023-04-01T10:56:38;3.17;;;0.70;;
20271;SDS011;10295;49.812;9.866;2023-04-01T11:04:39;2.10;;;0.53;;
20271;SDS011;10295;49.812;9.866;2023-04-01T11:16:00;1.77;;;0.67;;
20271;SDS011;10295;49.812;9.866;2023-04-01T11:33:34;4.13;;;0.90;;
20271;SDS011;10295;49.812;9.866;2023-04-01T11:41:30;2.03;;;0.70;;
20271;SDS011;10295;49.812;9.866;2023-04-01T11:46:33;1.87;;;0.60;;
20271;SDS011;10295;49.812;9.866;2023-04-01T11:51:39;1.17;;;0.63;;
20271;SDS011;10295;49.812;9.866;2023-04-01T11:54:24;2.00;;;0.77;;
20271;SDS011;10295;49.812;9.866;2023-04-01T12:02:24;3.13;;;0.97;;
20271;SDS011;10295;49.812;9.866;2023-04-01T12:10:39;1.37;;;0.70;;
20271;SDS011;10295;49.812;9.866;2023-04-01T12:33:48;3.67;;;1.20;;
20271;SDS011;10295;49.812;9.866;2023-04-01T12:41:42;2.43;;;0.77;;
20271;SDS011;10295;49.812;9.866;2023-04-01T12:44:16;2.33;;;0.90;;
20271;SDS011;10295;49.812;9.866;2023-04-01T12:49:40;1.30;;;0.50;;
20271;SDS011;10295;49.812;9.866;2023-04-01T13:02:39;2.43;;;0.50;;
20271;SDS011;10295;49.812;9.866;2023-04-01T13:20:49;1.50;;;0.53;;
20271;SDS011;10295;49.812;9.866;2023-04-01T13:28:34;1.47;;;0.63;;
20271;SDS011;10295;49.812;9.866;2023-04-01T13:31:09;3.67;;;1.07;;
20271;SDS011;10295;49.812;9.866;2023-04-01T13:33:50;2.97;;;1.00;;
20271;SDS011;10295;49.812;9.866;2023-04-01T13:36:28;2.93;;;1.07;;
20271;SDS011;10295;49.812;9.866;2023-04-01T13:44:18;3.30;;;1.13;;
20271;SDS011;10295;49.812;9.866;2023-04-01T13:57:51;10.00;;;4.07;;
20271;SDS011;10295;49.812;9.866;2023-04-01T14:08:26;1.63;;;0.90;;
20271;SDS011;10295;49.812;9.866;2023-04-01T14:13:46;2.93;;;1.10;;
20271;SDS011;10295;49.812;9.866;2023-04-01T14:21:21;2.97;;;0.90;;
20271;SDS011;10295;49.812;9.866;2023-04-01T14:24:36;2.37;;;0.73;;
20271;SDS011;10295;49.812;9.866;2023-04-01T14:29:24;1.27;;;0.60;;
20271;SDS011;10295;49.812;9.866;2023-04-01T14:32:07;2.63;;;0.63;;
20271;SDS011;10295;49.812;9.866;2023-04-01T14:40:16;3.20;;;0.60;;
20271;SDS011;10295;49.812;9.866;2023-04-01T14:45:25;2.20;;;0.70;;
20271;SDS011;10295;49.812;9.866;2023-04-01T14:50:24;3.90;;;1.20;;
20271;SDS011;10295;49.812;9.866;2023-04-01T14:52:58;3.30;;;0.80;;
20271;SDS011;10295;49.812;9.866;2023-04-01T14:57:58;4.17;;;0.83;;
20271;SDS011;10295;49.812;9.866;2023-04-01T15:00:26;3.03;;;1.00;;
20271;SDS011;10295;49.812;9.866;2023-04-01T15:08:51;3.03;;;0.80;;
20271;SDS011;10295;49.812;9.866;2023-04-01T15:24:41;3.17;;;1.00;;
20271;SDS011;10295;49.812;9.866;2023-04-01T15:37:45;2.63;;;1.00;;
20271;SDS011;10295;49.812;9.866;2023-04-01T15:40:20;3.27;;;0.80;;
20271;SDS011;10295;49.812;9.866;2023-04-01T15:45:36;2.60;;;1.03;;
20271;SDS011;10295;49.812;9.866;2023-04-01T15:48:12;4.90;;;1.03;;
20271;SDS011;10295;49.812;9.866;2023-04-01T15:51:02;5.47;;;1.43;;
20271;SDS011;10295;49.812;9.866;2023-04-01T15:53:43;4.10;;;1.20;;
20271;SDS011;10295;49.812;9.866;2023-04-01T15:58:48;1.20;;;0.80;;
20271;SDS011;10295;49.812;9.866;2023-04-01T16:01:24;3.17;;;1.37;;
20271;SDS011;10295;49.812;9.866;2023-04-01T16:06:58;3.53;;;1.00;;
20271;SDS011;10295;49.812;9.866;2023-04-01T16:09:31;3.13;;;0.90;;
20271;SDS011;10295;49.812;9.866;2023-04-01T16:12:07;3.50;;;1.10;;
20271;SDS011;10295;49.812;9.866;2023-04-01T16:14:50;3.13;;;1.30;;
20271;SDS011;10295;49.812;9.866;2023-04-01T16:20:15;3.03;;;1.30;;
20271;SDS011;10295;49.812;9.866;2023-04-01T16:22:46;6.00;;;1.87;;
20271;SDS011;10295;49.812;9.866;2023-04-01T16:30:55;3.40;;;1.10;;
20271;SDS011;10295;49.812;9.866;2023-04-01T16:33:38;3.93;;;1.17;;
20271;SDS011;10295;49.812;9.866;2023-04-01T16:36:12;1.77;;;0.87;;
20271;SDS011;10295;49.812;9.866;2023-04-01T16:43:56;2.30;;;1.10;;
20271;SDS011;10295;49.812;9.866;2023-04-01T16:51:37;3.27;;;1.00;;
20271;SDS011;10295;49.812;9.866;2023-04-01T16:54:13;3.07;;;1.10;;
20271;SDS011;10295;49.812;9.866;2023-04-01T16:56:48;2.37;;;1.00;;
20271;SDS011;10295;49.812;9.866;2023-04-01T16:59:34;2.93;;;1.07;;
20271;SDS011;10295;49.812;9.866;2023-04-01T17:02:03;2.30;;;1.00;;
20271;SDS011;10295;49.812;9.866;2023-04-01T17:13:06;3.87;;;1.20;;
20271;SDS011;10295;49.812;9.866;2023-04-01T17:15:38;3.00;;;1.20;;
20271;SDS011;10295;49.812;9.866;2023-04-01T17:18:13;3.17;;;1.23;;
20271;SDS011;10295;49.812;9.866;2023-04-01T17:20:50;3.73;;;0.90;;
20271;SDS011;10295;49.812;9.866;2023-04-01T17:23:36;3.50;;;0.90;;
20271;SDS011;10295;49.812;9.866;2023-04-01T17:26:17;2.80;;;0.93;;
20271;SDS011;10295;49.812;9.866;2023-04-01T17:31:33;1.80;;;0.83;;
20271;SDS011;10295;49.812;9.866;2023-04-01T17:42:01;8.63;;;3.97;;
20271;SDS011;10295;49.812;9.866;2023-04-01T17:44:38;2.67;;;0.87;;
20271;SDS011;10295;49.812;9.866;2023-04-01T17:57:46;3.47;;;0.90;;
20271;SDS011;10295;49.812;9.866;2023-04-01T18:05:51;3.13;;;1.20;;
20271;SDS011;10295;49.812;9.866;2023-04-01T18:11:13;3.97;;;1.20;;
20271;SDS011;10295;49.812;9.866;2023-04-01T18:19:22;3.57;;;1.00;;
20271;SDS011;10295;49.812;9.866;2023-04-01T18:21:54;8.53;;;2.60;;
20271;SDS011;10295;49.812;9.866;2023-04-01T18:27:01;3.83;;;1.50;;
20271;SDS011;10295;49.812;9.866;2023-04-01T18:32:13;5.73;;;1.90;;
20271;SDS011;10295;49.812;9.866;2023-04-01T18:37:31;3.83;;;1.40;;
20271;SDS011;10295;49.812;9.866;2023-04-01T18:40:10;2.97;;;1.37;;
20271;SDS011;10295;49.812;9.866;2023-04-01T18:45:31;5.00;;;1.20;;
20271;SDS011;10295;49.812;9.866;2023-04-01T18:48:08;5.23;;;1.50;;
20271;SDS011;10295;49.812;9.866;2023-04-01T18:53:17;3.53;;;1.10;;
20271;SDS011;10295;49.812;9.866;2023-04-01T18:55:47;2.77;;;1.07;;
20271;SDS011;10295;49.812;9.866;2023-04-01T19:00:52;4.53;;;1.27;;
20271;SDS011;10295;49.812;9.866;2023-04-01T19:03:34;3.03;;;1.10;;
20271;SDS011;10295;49.812;9.866;2023-04-01T19:06:12;2.90;;;1.10;;
20271;SDS011;10295;49.812;9.866;2023-04-01T19:08:40;2.53;;;1.00;;
20271;SDS011;10295;49.812;9.866;2023-04-01T19:24:07;4.50;;;0.90;;
20271;SDS011;10295;49.812;9.866;2023-04-01T19:26:53;3.63;;;1.27;;
20271;SDS011;10295;49.812;9.866;2023-04-01T19:29:31;3.70;;;1.00;;
20271;SDS011;10295;49.812;9.866;2023-04-01T19:34:51;2.67;;;1.13;;
20271;SDS011;10295;49.812;9.866;2023-04-01T19:37:32;3.17;;;1.10;;
20271;SDS011;10295;49.812;9.866;2023-04-01T19:42:49;4.37;;;1.13;;
20271;SDS011;10295;49.812;9.866;2023-04-01T19:48:13;7.97;;;2.30;;
20271;SDS011;10295;49.812;9.866;2023-04-01T19:50:49;4.43;;;1.10;;
20271;SDS011;10295;49.812;9.866;2023-04-01T19:55:50;4.20;;;1.00;;
20271;SDS011;10295;49.812;9.866;2023-04-01T19:58:26;2.23;;;0.90;;
20271;SDS011;10295;49.812;9.866;2023-04-01T20:00:59;2.87;;;0.90;;
20271;SDS011;10295;49.812;9.866;2023-04-01T20:03:45;5.70;;;1.17;;
20271;SDS011;10295;49.812;9.866;2023-04-01T20:19:40;3.23;;;1.00;;
20271;SDS011;10295;49.812;9.866;2023-04-01T20:25:08;4.43;;;1.10;;
20271;SDS011;10295;49.812;9.866;2023-04-01T20:27:47;3.63;;;1.10;;
20271;SDS011;10295;49.812;9.866;2023-04-01T20:30:38;1.57;;;0.90;;
20271;SDS011;10295;49.812;9.866;2023-04-01T20:41:45;2.67;;;1.03;;
20271;SDS011;10295;49.812;9.866;2023-04-01T20:47:10;4.00;;;1.10;;
20271;SDS011;10295;49.812;9.866;2023-04-01T20:49:45;2.60;;;1.00;;
20271;SDS011;10295;49.812;9.866;2023-04-01T21:11:15;6.33;;;1.00;;
20271;SDS011;10295;49.812;9.866;2023-04-01T21:32:11;3.10;;;0.90;;
20271;SDS011;10295;49.812;9.866;2023-04-01T21:39:56;4.27;;;1.00;;
20271;SDS011;10295;49.812;9.866;2023-04-01T21:42:48;4.40;;;0.80;;
20271;SDS011;10295;49.812;9.866;2023-04-01T22:00:48;2.23;;;1.00;;
20271;SDS011;10295;49.812;9.866;2023-04-01T22:13:39;2.73;;;1.00;;
20271;SDS011;10295;49.812;9.866;2023-04-01T22:16:16;2.73;;;1.00;;
20271;SDS011;10295;49.812;9.866;2023-04-01T22:26:32;3.20;;;1.10;;
20271;SDS011;10295;49.812;9.866;2023-04-01T22:29:12;2.30;;;0.90;;
20271;SDS011;10295;49.812;9.866;2023-04-01T22:31:47;5.87;;;1.00;;
20271;SDS011;10295;49.812;9.866;2023-04-01T22:35:17;3.70;;;1.10;;
20271;SDS011;10295;49.812;9.866;2023-04-01T22:42:40;2.80;;;0.93;;
20271;SDS011;10295;49.812;9.866;2023-04-01T22:47:57;3.03;;;1.10;;
20271;SDS011;10295;49.812;9.866;2023-04-01T22:50:31;4.00;;;1.30;;
20271;SDS011;10295;49.812;9.866;2023-04-01T22:53:25;5.67;;;1.40;;
20271;SDS011;10295;49.812;9.866;2023-04-01T22:55:47;3.20;;;1.30;;
20271;SDS011;10295;49.812;9.866;2023-04-01T22:58:19;2.47;;;1.00;;
20271;SDS011;10295;49.812;9.866;2023-04-01T23:01:06;1.80;;;1.00;;
20271;SDS011;10295;49.812;9.866;2023-04-01T23:03:35;2.97;;;1.13;;
20271;SDS011;10295;49.812;9.866;2023-04-01T23:06:05;4.47;;;1.20;;
20271;SDS011;10295;49.812;9.866;2023-04-01T23:11:04;4.00;;;1.30;;
20271;SDS011;10295;49.812;9.866;2023-04-01T23:13:34;3.37;;;1.10;;
20271;SDS011;10295;49.812;9.866;2023-04-01T23:16:04;4.63;;;1.37;;
20271;SDS011;10295;49.812;9.866;2023-04-01T23:21:18;5.00;;;1.33;;
20271;SDS011;10295;49.812;9.866;2023-04-01T23:28:51;3.77;;;1.33;;
20271;SDS011;10295;49.812;9.866;2023-04-01T23:33:53;3.70;;;1.47;;
20271;SDS011;10295;49.812;9.866;2023-04-01T23:36:20;3.43;;;1.40;;
20271;SDS011;10295;49.812;9.866;2023-04-01T23:38:48;3.57;;;1.30;;
20271;SDS011;10295;49.812;9.866;2023-04-01T23:41:26;3.57;;;1.30;;
20271;SDS011;10295;49.812;9.866;2023-04-01T23:43:56;3.37;;;1.40;;
20271;SDS011;10295;49.812;9.866;2023-04-01T23:46:26;4.33;;;1.40;;
20271;SDS011;10295;49.812;9.866;2023-04-01T23:48:53;3.57;;;1.30;;
20271;SDS011;10295;49.812;9.866;2023-04-01T23:51:27;4.23;;;1.53;;
20271;SDS011;10295;49.812;9.866;2023-04-01T23:54:02;4.10;;;1.40;;
20271;SDS011;10295;49.812;9.866;2023-04-01T23:56:48;4.63;;;1.60;;
20271;SDS011;10295;49.812;9.866;2023-04-01T23:59:38;2.97;;;1.43;;
